sensor_id;sensor_type;location;lat;lon;timestamp;pressure;altitude;pressure_sealevel;temperature;humidity
59829;BME280;45708;51.848;107.620;2023-05-24T00:01:55;93476.50;;;23.25;26.44
59829;BME280;45708;51.848;107.620;2023-05-24T00:06:56;93484.44;;;23.21;25.79
59829;BME280;45708;51.848;107.620;2023-05-24T00:11:57;93498.78;;;22.02;27.17
59829;BME280;45708;51.848;107.620;2023-05-24T00:16:58;93488.34;;;21.79;27.39
59829;BME280;45708;51.848;107.620;2023-05-24T00:21:59;93476.25;;;22.48;26.95
59829;BME280;45708;51.848;107.620;2023-05-24T00:27:00;93474.91;;;23.48;26.06
59829;BME280;45708;51.848;107.620;2023-05-24T00:32:00;93469.31;;;23.65;26.13
59829;BME280;45708;51.848;107.620;2023-05-24T00:37:01;93451.97;;;24.47;25.21
59829;BME280;45708;51.848;107.620;2023-05-24T00:42:02;93452.97;;;25.02;24.14
59829;BME280;45708;51.848;107.620;2023-05-24T00:47:03;93447.69;;;23.78;25.34
59829;BME280;45708;51.848;107.620;2023-05-24T00:52:04;93448.97;;;24.08;25.21
59829;BME280;45708;51.848;107.620;2023-05-24T00:57:06;93436.00;;;24.42;24.88
59829;BME280;45708;51.848;107.620;2023-05-24T01:02:06;93425.41;;;24.49;24.76
59829;BME280;45708;51.848;107.620;2023-05-24T01:07:32;93428.22;;;25.31;24.36
59829;BME280;45708;51.848;107.620;2023-05-24T01:18:16;93411.88;;;26.79;22.48
59829;BME280;45708;51.848;107.620;2023-05-24T01:28:30;93377.66;;;27.69;21.43
59829;BME280;45708;51.848;107.620;2023-05-24T01:33:32;93372.50;;;28.24;20.69
59829;BME280;45708;51.848;107.620;2023-05-24T01:38:33;93372.47;;;28.58;19.95
59829;BME280;45708;51.848;107.620;2023-05-24T01:43:40;93362.19;;;27.43;20.57
59829;BME280;45708;51.848;107.620;2023-05-24T01:53:48;93361.00;;;25.84;21.91
59829;BME280;45708;51.848;107.620;2023-05-24T01:58:50;93355.97;;;24.97;22.71
59829;BME280;45708;51.848;107.620;2023-05-24T02:03:52;93349.59;;;24.10;23.65
59829;BME280;45708;51.848;107.620;2023-05-24T02:08:53;93344.97;;;24.11;23.78
59829;BME280;45708;51.848;107.620;2023-05-24T02:13:54;93344.72;;;23.72;24.03
59829;BME280;45708;51.848;107.620;2023-05-24T02:18:55;93340.84;;;23.45;24.30
59829;BME280;45708;51.848;107.620;2023-05-24T02:23:56;93324.09;;;24.08;24.05
59829;BME280;45708;51.848;107.620;2023-05-24T02:28:57;93315.88;;;24.48;23.13
59829;BME280;45708;51.848;107.620;2023-05-24T02:33:58;93296.78;;;23.65;24.30
59829;BME280;45708;51.848;107.620;2023-05-24T02:39:00;93297.91;;;23.52;23.70
59829;BME280;45708;51.848;107.620;2023-05-24T02:44:01;93300.78;;;22.42;25.36
59829;BME280;45708;51.848;107.620;2023-05-24T02:49:03;93279.22;;;23.72;23.11
59829;BME280;45708;51.848;107.620;2023-05-24T02:54:04;93283.06;;;22.41;22.13
59829;BME280;45708;51.848;107.620;2023-05-24T02:59:05;93292.56;;;21.36;22.10
59829;BME280;45708;51.848;107.620;2023-05-24T03:04:05;93296.81;;;20.45;22.83
59829;BME280;45708;51.848;107.620;2023-05-24T03:09:06;93280.41;;;20.38;22.88
59829;BME280;45708;51.848;107.620;2023-05-24T03:14:07;93268.19;;;20.20;22.87
59829;BME280;45708;51.848;107.620;2023-05-24T03:19:08;93265.47;;;20.58;22.61
59829;BME280;45708;51.848;107.620;2023-05-24T03:24:09;93260.09;;;21.08;22.28
59829;BME280;45708;51.848;107.620;2023-05-24T03:29:09;93266.38;;;20.91;22.53
59829;BME280;45708;51.848;107.620;2023-05-24T03:34:10;93272.63;;;21.16;22.33
59829;BME280;45708;51.848;107.620;2023-05-24T03:39:11;93252.22;;;21.57;22.08
59829;BME280;45708;51.848;107.620;2023-05-24T03:44:12;93260.28;;;21.45;22.05
59829;BME280;45708;51.848;107.620;2023-05-24T03:49:13;93248.22;;;21.63;21.99
59829;BME280;45708;51.848;107.620;2023-05-24T03:54:14;93254.97;;;21.81;21.84
59829;BME280;45708;51.848;107.620;2023-05-24T03:59:14;93254.28;;;21.27;22.35
59829;BME280;45708;51.848;107.620;2023-05-24T04:04:15;93244.91;;;20.91;23.21
59829;BME280;45708;51.848;107.620;2023-05-24T04:09:16;93255.75;;;20.53;23.94
59829;BME280;45708;51.848;107.620;2023-05-24T04:14:17;93249.88;;;20.22;23.84
59829;BME280;45708;51.848;107.620;2023-05-24T04:19:18;93262.34;;;20.26;24.36
59829;BME280;45708;51.848;107.620;2023-05-24T04:24:18;93249.81;;;20.01;24.35
59829;BME280;45708;51.848;107.620;2023-05-24T04:29:19;93258.66;;;20.01;24.39
59829;BME280;45708;51.848;107.620;2023-05-24T04:34:20;93239.25;;;20.43;24.13
59829;BME280;45708;51.848;107.620;2023-05-24T04:39:21;93239.00;;;20.56;24.05
59829;BME280;45708;51.848;107.620;2023-05-24T04:44:22;93240.31;;;20.50;23.58
59829;BME280;45708;51.848;107.620;2023-05-24T04:49:23;93227.78;;;19.95;24.10
59829;BME280;45708;51.848;107.620;2023-05-24T04:54:24;93241.00;;;19.36;24.44
59829;BME280;45708;51.848;107.620;2023-05-24T04:59:26;93241.38;;;18.74;25.01
59829;BME280;45708;51.848;107.620;2023-05-24T05:04:27;93235.28;;;18.17;25.50
59829;BME280;45708;51.848;107.620;2023-05-24T05:09:27;93243.72;;;17.93;25.89
59829;BME280;45708;51.848;107.620;2023-05-24T05:14:28;93239.59;;;17.87;26.29
59829;BME280;45708;51.848;107.620;2023-05-24T05:19:29;93244.22;;;18.04;25.97
59829;BME280;45708;51.848;107.620;2023-05-24T05:24:30;93240.25;;;18.01;26.11
59829;BME280;45708;51.848;107.620;2023-05-24T05:29:31;93245.00;;;18.04;26.40
59829;BME280;45708;51.848;107.620;2023-05-24T05:34:31;93243.59;;;18.07;26.37
59829;BME280;45708;51.848;107.620;2023-05-24T05:39:32;93245.22;;;17.77;26.90
59829;BME280;45708;51.848;107.620;2023-05-24T05:44:33;93249.47;;;17.55;27.38
59829;BME280;45708;51.848;107.620;2023-05-24T05:49:35;93245.50;;;17.44;27.60
59829;BME280;45708;51.848;107.620;2023-05-24T05:54:36;93242.75;;;17.27;27.67
59829;BME280;45708;51.848;107.620;2023-05-24T05:59:36;93245.00;;;17.11;28.18
59829;BME280;45708;51.848;107.620;2023-05-24T06:04:37;93239.22;;;17.18;27.95
59829;BME280;45708;51.848;107.620;2023-05-24T06:09:38;93248.25;;;17.30;27.86
59829;BME280;45708;51.848;107.620;2023-05-24T06:14:39;93243.94;;;17.43;27.72
59829;BME280;45708;51.848;107.620;2023-05-24T06:19:39;93246.00;;;17.46;27.93
59829;BME280;45708;51.848;107.620;2023-05-24T06:24:40;93244.03;;;17.38;28.02
59829;BME280;45708;51.848;107.620;2023-05-24T06:29:41;93252.53;;;17.40;28.14
59829;BME280;45708;51.848;107.620;2023-05-24T06:34:42;93261.53;;;17.44;27.99
59829;BME280;45708;51.848;107.620;2023-05-24T06:39:42;93248.56;;;17.29;28.00
59829;BME280;45708;51.848;107.620;2023-05-24T06:44:43;93235.22;;;17.29;28.56
59829;BME280;45708;51.848;107.620;2023-05-24T06:49:44;93247.47;;;17.08;28.61
59829;BME280;45708;51.848;107.620;2023-05-24T06:54:45;93229.03;;;16.97;28.74
59829;BME280;45708;51.848;107.620;2023-05-24T06:59:45;93265.66;;;16.83;29.34
59829;BME280;45708;51.848;107.620;2023-05-24T07:04:46;93263.09;;;16.78;29.11
59829;BME280;45708;51.848;107.620;2023-05-24T07:09:47;93265.88;;;16.73;29.77
59829;BME280;45708;51.848;107.620;2023-05-24T07:14:48;93266.88;;;16.63;30.24
59829;BME280;45708;51.848;107.620;2023-05-24T07:19:48;93269.44;;;16.55;30.26
59829;BME280;45708;51.848;107.620;2023-05-24T07:24:50;93281.91;;;16.46;30.52
59829;BME280;45708;51.848;107.620;2023-05-24T07:29:50;93275.00;;;16.45;30.76
59829;BME280;45708;51.848;107.620;2023-05-24T07:34:51;93278.31;;;16.64;30.74
59829;BME280;45708;51.848;107.620;2023-05-24T07:39:52;93276.28;;;16.33;31.63
59829;BME280;45708;51.848;107.620;2023-05-24T07:44:53;93293.78;;;16.12;32.56
59829;BME280;45708;51.848;107.620;2023-05-24T07:49:54;93290.13;;;15.80;33.24
59829;BME280;45708;51.848;107.620;2023-05-24T07:54:54;93299.28;;;15.74;33.60
59829;BME280;45708;51.848;107.620;2023-05-24T07:59:55;93305.41;;;15.89;32.86
59829;BME280;45708;51.848;107.620;2023-05-24T08:04:56;93308.75;;;15.80;33.07
59829;BME280;45708;51.848;107.620;2023-05-24T08:09:57;93306.13;;;15.48;33.38
59829;BME280;45708;51.848;107.620;2023-05-24T08:14:58;93306.75;;;15.59;33.54
59829;BME280;45708;51.848;107.620;2023-05-24T08:19:58;93316.66;;;15.86;33.56
59829;BME280;45708;51.848;107.620;2023-05-24T08:24:59;93320.81;;;15.92;33.58
59829;BME280;45708;51.848;107.620;2023-05-24T08:30:00;93310.91;;;15.78;33.47
59829;BME280;45708;51.848;107.620;2023-05-24T08:35:01;93334.81;;;15.84;33.74
59829;BME280;45708;51.848;107.620;2023-05-24T08:40:02;93323.97;;;16.07;33.19
59829;BME280;45708;51.848;107.620;2023-05-24T08:45:07;93327.91;;;16.10;33.47
59829;BME280;45708;51.848;107.620;2023-05-24T08:50:09;93344.25;;;15.76;33.42
59829;BME280;45708;51.848;107.620;2023-05-24T08:55:10;93385.75;;;15.44;34.48
59829;BME280;45708;51.848;107.620;2023-05-24T09:00:12;93410.03;;;14.57;38.85
59829;BME280;45708;51.848;107.620;2023-05-24T09:05:14;93455.03;;;12.58;51.28
59829;BME280;45708;51.848;107.620;2023-05-24T09:10:18;93450.84;;;10.74;58.46
59829;BME280;45708;51.848;107.620;2023-05-24T09:15:19;93453.81;;;9.51;64.19
59829;BME280;45708;51.848;107.620;2023-05-24T09:20:20;93526.38;;;9.32;67.56
59829;BME280;45708;51.848;107.620;2023-05-24T09:25:21;93509.72;;;8.77;69.50
59829;BME280;45708;51.848;107.620;2023-05-24T09:30:22;93545.91;;;8.43;71.19
59829;BME280;45708;51.848;107.620;2023-05-24T09:35:23;93548.00;;;8.24;72.10
59829;BME280;45708;51.848;107.620;2023-05-24T09:40:25;93558.84;;;7.94;70.28
59829;BME280;45708;51.848;107.620;2023-05-24T09:45:27;93573.50;;;7.90;71.59
59829;BME280;45708;51.848;107.620;2023-05-24T09:50:27;93564.59;;;7.75;70.71
59829;BME280;45708;51.848;107.620;2023-05-24T09:55:28;93618.16;;;7.57;71.40
59829;BME280;45708;51.848;107.620;2023-05-24T10:00:32;93592.50;;;7.19;71.59
59829;BME280;45708;51.848;107.620;2023-05-24T10:05:34;93608.56;;;6.94;70.71
59829;BME280;45708;51.848;107.620;2023-05-24T10:10:35;93605.19;;;6.82;73.10
59829;BME280;45708;51.848;107.620;2023-05-24T10:15:37;93628.22;;;6.80;71.18
59829;BME280;45708;51.848;107.620;2023-05-24T10:20:38;93625.97;;;6.71;72.66
59829;BME280;45708;51.848;107.620;2023-05-24T10:31:04;93695.88;;;6.54;74.40
59829;BME280;45708;51.848;107.620;2023-05-24T10:36:09;93715.16;;;6.60;75.19
59829;BME280;45708;51.848;107.620;2023-05-24T10:41:11;93745.28;;;6.57;75.00
59829;BME280;45708;51.848;107.620;2023-05-24T10:46:14;93761.06;;;6.69;74.33
59829;BME280;45708;51.848;107.620;2023-05-24T10:51:37;93771.06;;;6.60;73.36
59829;BME280;45708;51.848;107.620;2023-05-24T10:56:43;93772.53;;;6.56;72.77
59829;BME280;45708;51.848;107.620;2023-05-24T11:01:44;93743.56;;;6.51;74.33
59829;BME280;45708;51.848;107.620;2023-05-24T11:07:02;93771.41;;;6.52;75.51
59829;BME280;45708;51.848;107.620;2023-05-24T11:12:07;93795.53;;;6.31;72.87
59829;BME280;45708;51.848;107.620;2023-05-24T11:17:08;93786.53;;;6.27;73.72
59829;BME280;45708;51.848;107.620;2023-05-24T11:22:09;93796.94;;;6.03;72.41
59829;BME280;45708;51.848;107.620;2023-05-24T11:27:13;93771.47;;;5.92;72.93
59829;BME280;45708;51.848;107.620;2023-05-24T11:32:16;93759.09;;;5.81;71.49
59829;BME280;45708;51.848;107.620;2023-05-24T11:37:17;93782.97;;;5.73;70.33
59829;BME280;45708;51.848;107.620;2023-05-24T11:42:19;93798.13;;;5.71;71.26
59829;BME280;45708;51.848;107.620;2023-05-24T11:47:20;93798.69;;;5.73;70.65
59829;BME280;45708;51.848;107.620;2023-05-24T11:52:21;93801.88;;;5.75;71.43
59829;BME280;45708;51.848;107.620;2023-05-24T11:57:29;93802.47;;;5.77;71.74
59829;BME280;45708;51.848;107.620;2023-05-24T12:02:35;93813.84;;;5.71;72.20
59829;BME280;45708;51.848;107.620;2023-05-24T12:07:36;93836.75;;;5.57;72.38
59829;BME280;45708;51.848;107.620;2023-05-24T12:12:42;93873.88;;;5.54;73.50
59829;BME280;45708;51.848;107.620;2023-05-24T12:17:43;93886.31;;;5.59;74.09
59829;BME280;45708;51.848;107.620;2023-05-24T12:22:55;93880.56;;;5.68;74.22
59829;BME280;45708;51.848;107.620;2023-05-24T12:27:56;93872.78;;;5.62;74.20
59829;BME280;45708;51.848;107.620;2023-05-24T12:32:57;93871.47;;;5.53;73.86
59829;BME280;45708;51.848;107.620;2023-05-24T12:37:58;93859.09;;;5.41;73.20
59829;BME280;45708;51.848;107.620;2023-05-24T12:42:59;93857.47;;;5.40;72.98
59829;BME280;45708;51.848;107.620;2023-05-24T12:48:00;93872.97;;;5.24;72.45
59829;BME280;45708;51.848;107.620;2023-05-24T12:53:01;93905.19;;;5.24;72.84
59829;BME280;45708;51.848;107.620;2023-05-24T12:58:02;93928.47;;;5.32;73.04
59829;BME280;45708;51.848;107.620;2023-05-24T13:03:02;93950.72;;;5.23;73.46
59829;BME280;45708;51.848;107.620;2023-05-24T13:08:03;93944.28;;;5.19;73.49
59829;BME280;45708;51.848;107.620;2023-05-24T13:13:05;93925.31;;;4.99;73.28
59829;BME280;45708;51.848;107.620;2023-05-24T13:18:06;93949.72;;;4.93;73.12
59829;BME280;45708;51.848;107.620;2023-05-24T13:23:07;93938.50;;;4.85;73.33
59829;BME280;45708;51.848;107.620;2023-05-24T13:28:07;93974.44;;;4.97;72.96
59829;BME280;45708;51.848;107.620;2023-05-24T13:33:08;93983.88;;;4.98;73.20
59829;BME280;45708;51.848;107.620;2023-05-24T13:38:09;93978.50;;;4.93;72.40
59829;BME280;45708;51.848;107.620;2023-05-24T13:43:10;93975.88;;;4.93;73.29
59829;BME280;45708;51.848;107.620;2023-05-24T13:48:11;93964.47;;;4.80;72.89
59829;BME280;45708;51.848;107.620;2023-05-24T13:53:12;93958.25;;;4.81;72.91
59829;BME280;45708;51.848;107.620;2023-05-24T13:58:13;93965.38;;;4.68;72.21
59829;BME280;45708;51.848;107.620;2023-05-24T14:03:13;93990.34;;;4.57;72.67
59829;BME280;45708;51.848;107.620;2023-05-24T14:08:14;94012.28;;;4.56;72.58
59829;BME280;45708;51.848;107.620;2023-05-24T14:13:17;94013.91;;;4.57;72.77
59829;BME280;45708;51.848;107.620;2023-05-24T14:18:17;94009.50;;;4.51;72.88
59829;BME280;45708;51.848;107.620;2023-05-24T14:23:18;94018.75;;;4.53;72.58
59829;BME280;45708;51.848;107.620;2023-05-24T14:28:19;94032.78;;;4.59;72.78
59829;BME280;45708;51.848;107.620;2023-05-24T14:33:20;94026.75;;;4.58;72.55
59829;BME280;45708;51.848;107.620;2023-05-24T14:38:21;94028.78;;;4.63;72.19
59829;BME280;45708;51.848;107.620;2023-05-24T14:43:21;94028.34;;;4.66;71.86
59829;BME280;45708;51.848;107.620;2023-05-24T14:48:22;94025.50;;;4.74;71.47
59829;BME280;45708;51.848;107.620;2023-05-24T14:53:23;94020.69;;;4.71;70.77
59829;BME280;45708;51.848;107.620;2023-05-24T14:58:24;94003.59;;;4.69;70.61
59829;BME280;45708;51.848;107.620;2023-05-24T15:03:24;94009.38;;;4.77;69.92
59829;BME280;45708;51.848;107.620;2023-05-24T15:08:25;93995.75;;;4.69;69.36
59829;BME280;45708;51.848;107.620;2023-05-24T15:13:26;93993.94;;;4.69;69.01
59829;BME280;45708;51.848;107.620;2023-05-24T15:18:29;94006.59;;;4.72;68.28
59829;BME280;45708;51.848;107.620;2023-05-24T15:23:31;94006.59;;;4.72;68.48
59829;BME280;45708;51.848;107.620;2023-05-24T15:28:32;94005.38;;;4.75;68.54
59829;BME280;45708;51.848;107.620;2023-05-24T15:33:34;93992.56;;;4.60;68.18
59829;BME280;45708;51.848;107.620;2023-05-24T15:38:35;93981.50;;;4.65;67.82
59829;BME280;45708;51.848;107.620;2023-05-24T15:43:36;93961.16;;;4.60;67.74
59829;BME280;45708;51.848;107.620;2023-05-24T15:48:37;93986.41;;;4.79;67.66
59829;BME280;45708;51.848;107.620;2023-05-24T15:53:37;94008.56;;;4.83;67.49
59829;BME280;45708;51.848;107.620;2023-05-24T15:58:38;94006.75;;;4.77;67.31
59829;BME280;45708;51.848;107.620;2023-05-24T16:03:39;94004.53;;;4.81;66.98
59829;BME280;45708;51.848;107.620;2023-05-24T16:08:40;94023.84;;;4.86;67.18
59829;BME280;45708;51.848;107.620;2023-05-24T16:13:41;94022.25;;;4.79;66.99
59829;BME280;45708;51.848;107.620;2023-05-24T16:18:41;94024.09;;;4.72;67.23
59829;BME280;45708;51.848;107.620;2023-05-24T16:23:42;94026.56;;;4.60;67.35
59829;BME280;45708;51.848;107.620;2023-05-24T16:28:43;94011.94;;;4.46;67.50
59829;BME280;45708;51.848;107.620;2023-05-24T16:33:44;94034.47;;;4.47;67.41
59829;BME280;45708;51.848;107.620;2023-05-24T16:38:45;94021.22;;;4.35;67.63
59829;BME280;45708;51.848;107.620;2023-05-24T16:43:45;94044.38;;;4.32;67.91
59829;BME280;45708;51.848;107.620;2023-05-24T16:48:46;94023.72;;;4.10;67.71
59829;BME280;45708;51.848;107.620;2023-05-24T16:53:47;94014.88;;;3.98;68.34
59829;BME280;45708;51.848;107.620;2023-05-24T16:58:48;94048.28;;;4.03;68.63
59829;BME280;45708;51.848;107.620;2023-05-24T17:03:48;94040.47;;;3.83;68.04
59829;BME280;45708;51.848;107.620;2023-05-24T17:08:49;94049.69;;;3.92;68.75
59829;BME280;45708;51.848;107.620;2023-05-24T17:13:50;94045.06;;;3.87;68.70
59829;BME280;45708;51.848;107.620;2023-05-24T17:18:51;94027.78;;;3.80;68.95
59829;BME280;45708;51.848;107.620;2023-05-24T17:23:53;94026.38;;;3.90;68.54
59829;BME280;45708;51.848;107.620;2023-05-24T17:28:53;94003.66;;;4.04;68.36
59829;BME280;45708;51.848;107.620;2023-05-24T17:33:55;93996.59;;;3.98;68.19
59829;BME280;45708;51.848;107.620;2023-05-24T17:38:56;93779.63;;;2.64;67.51
59829;BME280;45708;51.848;107.620;2023-05-24T17:43:57;94028.13;;;4.16;68.25
59829;BME280;45708;51.848;107.620;2023-05-24T17:48:58;94032.34;;;4.17;67.94
59829;BME280;45708;51.848;107.620;2023-05-24T17:53:59;94039.16;;;4.18;68.01
59829;BME280;45708;51.848;107.620;2023-05-24T17:59:00;94061.91;;;4.11;67.92
59829;BME280;45708;51.848;107.620;2023-05-24T18:04:00;94064.13;;;4.14;67.79
59829;BME280;45708;51.848;107.620;2023-05-24T18:09:01;94026.56;;;4.02;67.69
59829;BME280;45708;51.848;107.620;2023-05-24T18:14:02;94040.63;;;4.01;68.05
59829;BME280;45708;51.848;107.620;2023-05-24T18:19:03;94036.63;;;3.92;68.11
59829;BME280;45708;51.848;107.620;2023-05-24T18:24:04;94044.28;;;3.87;68.25
59829;BME280;45708;51.848;107.620;2023-05-24T18:29:04;94038.84;;;3.82;68.42
59829;BME280;45708;51.848;107.620;2023-05-24T18:34:05;94014.94;;;3.78;68.14
59829;BME280;45708;51.848;107.620;2023-05-24T18:39:06;94000.88;;;3.73;68.33
59829;BME280;45708;51.848;107.620;2023-05-24T18:44:07;93999.69;;;3.82;68.21
59829;BME280;45708;51.848;107.620;2023-05-24T18:49:08;94003.03;;;3.95;67.37
59829;BME280;45708;51.848;107.620;2023-05-24T18:54:08;93995.00;;;3.97;67.06
59829;BME280;45708;51.848;107.620;2023-05-24T18:59:09;94011.47;;;4.11;67.06
59829;BME280;45708;51.848;107.620;2023-05-24T19:04:10;94022.88;;;4.16;66.85
59829;BME280;45708;51.848;107.620;2023-05-24T19:09:11;94012.66;;;4.08;66.70
59829;BME280;45708;51.848;107.620;2023-05-24T19:14:12;94017.31;;;4.06;66.85
59829;BME280;45708;51.848;107.620;2023-05-24T19:19:12;94039.38;;;4.23;66.76
59829;BME280;45708;51.848;107.620;2023-05-24T19:24:13;94058.69;;;4.22;67.01
59829;BME280;45708;51.848;107.620;2023-05-24T19:29:15;94072.75;;;4.21;67.67
59829;BME280;45708;51.848;107.620;2023-05-24T19:34:17;94083.81;;;4.23;67.67
59829;BME280;45708;51.848;107.620;2023-05-24T19:39:18;94078.38;;;4.18;67.51
59829;BME280;45708;51.848;107.620;2023-05-24T19:44:19;94085.25;;;4.06;68.25
59829;BME280;45708;51.848;107.620;2023-05-24T19:49:20;94094.31;;;4.04;68.09
59829;BME280;45708;51.848;107.620;2023-05-24T19:54:21;94118.81;;;4.09;68.22
59829;BME280;45708;51.848;107.620;2023-05-24T19:59:21;94129.47;;;4.01;68.78
59829;BME280;45708;51.848;107.620;2023-05-24T20:04:22;94111.19;;;3.88;68.09
59829;BME280;45708;51.848;107.620;2023-05-24T20:09:23;94136.72;;;3.86;68.54
59829;BME280;45708;51.848;107.620;2023-05-24T20:14:24;94081.44;;;3.49;69.00
59829;BME280;45708;51.848;107.620;2023-05-24T20:19:25;94128.25;;;3.77;69.19
59829;BME280;45708;51.848;107.620;2023-05-24T20:24:26;94119.22;;;3.66;68.84
59829;BME280;45708;51.848;107.620;2023-05-24T20:29:27;94112.97;;;3.54;69.36
59829;BME280;45708;51.848;107.620;2023-05-24T20:34:27;94136.66;;;3.59;69.01
59829;BME280;45708;51.848;107.620;2023-05-24T20:39:28;94122.97;;;3.31;69.37
59829;BME280;45708;51.848;107.620;2023-05-24T20:44:29;94143.22;;;3.16;70.33
59829;BME280;45708;51.848;107.620;2023-05-24T20:49:30;94120.91;;;3.07;70.62
59829;BME280;45708;51.848;107.620;2023-05-24T20:54:31;94143.88;;;3.31;69.87
59829;BME280;45708;51.848;107.620;2023-05-24T20:59:31;94134.44;;;3.30;69.49
59829;BME280;45708;51.848;107.620;2023-05-24T21:04:32;94152.34;;;3.46;69.24
59829;BME280;45708;51.848;107.620;2023-05-24T21:09:33;94150.53;;;3.53;68.90
59829;BME280;45708;51.848;107.620;2023-05-24T21:14:34;94164.63;;;3.65;69.14
59829;BME280;45708;51.848;107.620;2023-05-24T21:19:34;94168.44;;;3.76;68.29
59829;BME280;45708;51.848;107.620;2023-05-24T21:24:35;94175.09;;;3.85;67.91
59829;BME280;45708;51.848;107.620;2023-05-24T21:29:36;94171.28;;;4.01;67.65
59829;BME280;45708;51.848;107.620;2023-05-24T21:34:37;94167.44;;;4.17;67.22
59829;BME280;45708;51.848;107.620;2023-05-24T21:39:37;94190.19;;;4.43;65.80
59829;BME280;45708;51.848;107.620;2023-05-24T21:44:38;94190.16;;;4.49;65.60
59829;BME280;45708;51.848;107.620;2023-05-24T21:49:39;94208.44;;;4.56;64.65
59829;BME280;45708;51.848;107.620;2023-05-24T21:54:40;94200.41;;;4.64;64.19
59829;BME280;45708;51.848;107.620;2023-05-24T21:59:40;94201.59;;;4.68;63.96
59829;BME280;45708;51.848;107.620;2023-05-24T22:04:41;94206.16;;;4.93;62.84
59829;BME280;45708;51.848;107.620;2023-05-24T22:09:42;94222.03;;;5.11;61.67
59829;BME280;45708;51.848;107.620;2023-05-24T22:14:43;94227.66;;;5.21;60.81
59829;BME280;45708;51.848;107.620;2023-05-24T22:19:44;94224.00;;;5.22;60.33
59829;BME280;45708;51.848;107.620;2023-05-24T22:24:44;94220.59;;;5.66;59.32
59829;BME280;45708;51.848;107.620;2023-05-24T22:29:45;94229.38;;;6.17;58.21
59829;BME280;45708;51.848;107.620;2023-05-24T22:34:46;94234.16;;;5.95;58.11
59829;BME280;45708;51.848;107.620;2023-05-24T22:39:47;94229.09;;;6.00;57.66
59829;BME280;45708;51.848;107.620;2023-05-24T22:44:48;94237.31;;;6.35;57.38
59829;BME280;45708;51.848;107.620;2023-05-24T22:49:49;94215.16;;;6.31;56.44
59829;BME280;45708;51.848;107.620;2023-05-24T22:54:50;94238.97;;;6.29;56.77
59829;BME280;45708;51.848;107.620;2023-05-24T22:59:50;94232.84;;;6.42;56.59
59829;BME280;45708;51.848;107.620;2023-05-24T23:04:51;94248.00;;;6.65;56.46
59829;BME280;45708;51.848;107.620;2023-05-24T23:09:52;94239.34;;;6.83;55.93
59829;BME280;45708;51.848;107.620;2023-05-24T23:14:53;94249.03;;;7.25;54.91
59829;BME280;45708;51.848;107.620;2023-05-24T23:19:54;94252.06;;;7.41;54.46
59829;BME280;45708;51.848;107.620;2023-05-24T23:24:55;94240.63;;;7.17;54.21
59829;BME280;45708;51.848;107.620;2023-05-24T23:29:55;94262.22;;;6.76;54.90
59829;BME280;45708;51.848;107.620;2023-05-24T23:34:56;94277.38;;;6.24;56.37
59829;BME280;45708;51.848;107.620;2023-05-24T23:39:57;94277.91;;;5.94;57.12
59829;BME280;45708;51.848;107.620;2023-05-24T23:44:58;94264.91;;;6.13;56.74
59829;BME280;45708;51.848;107.620;2023-05-24T23:49:58;94263.03;;;6.20;56.02
59829;BME280;45708;51.848;107.620;2023-05-24T23:54:59;94268.25;;;5.95;57.12
